sensor_id;sensor_type;location;lat;lon;timestamp;pressure;altitude;pressure_sealevel;temperature;humidity
21357;BME280;10836;53.068;18.234;2023-04-23T00:02:18;100639.66;;;4.56;100.00
21357;BME280;10836;53.068;18.234;2023-04-23T00:04:49;100630.59;;;4.50;100.00
21357;BME280;10836;53.068;18.234;2023-04-23T00:07:18;100636.81;;;4.39;100.00
21357;BME280;10836;53.068;18.234;2023-04-23T00:09:46;100624.50;;;4.31;100.00
21357;BME280;10836;53.068;18.234;2023-04-23T00:12:13;100619.44;;;4.23;100.00
21357;BME280;10836;53.068;18.234;2023-04-23T00:14:40;100616.25;;;4.15;100.00
21357;BME280;10836;53.068;18.234;2023-04-23T00:17:08;100621.66;;;4.15;100.00
21357;BME280;10836;53.068;18.234;2023-04-23T00:19:35;100616.00;;;4.05;100.00
21357;BME280;10836;53.068;18.234;2023-04-23T00:22:01;100626.81;;;4.05;100.00
21357;BME280;10836;53.068;18.234;2023-04-23T00:24:28;100618.13;;;4.03;100.00
21357;BME280;10836;53.068;18.234;2023-04-23T00:26:57;100607.66;;;4.06;100.00
21357;BME280;10836;53.068;18.234;2023-04-23T00:29:24;100612.00;;;3.95;100.00
21357;BME280;10836;53.068;18.234;2023-04-23T00:31:51;100607.19;;;4.09;100.00
21357;BME280;10836;53.068;18.234;2023-04-23T00:34:18;100599.56;;;4.18;100.00
21357;BME280;10836;53.068;18.234;2023-04-23T00:36:45;100598.88;;;4.11;100.00
21357;BME280;10836;53.068;18.234;2023-04-23T00:39:12;100596.28;;;4.16;100.00
21357;BME280;10836;53.068;18.234;2023-04-23T00:41:39;100585.13;;;4.12;100.00
21357;BME280;10836;53.068;18.234;2023-04-23T00:44:07;100587.47;;;4.20;100.00
21357;BME280;10836;53.068;18.234;2023-04-23T00:46:38;100590.16;;;4.09;100.00
21357;BME280;10836;53.068;18.234;2023-04-23T00:49:04;100590.50;;;4.00;100.00
21357;BME280;10836;53.068;18.234;2023-04-23T00:51:31;100580.75;;;3.99;100.00
21357;BME280;10836;53.068;18.234;2023-04-23T00:53:58;100590.97;;;3.97;100.00
21357;BME280;10836;53.068;18.234;2023-04-23T00:56:26;100584.88;;;4.02;100.00
21357;BME280;10836;53.068;18.234;2023-04-23T00:58:53;100589.19;;;3.91;100.00
21357;BME280;10836;53.068;18.234;2023-04-23T01:01:21;100586.38;;;3.86;100.00
21357;BME280;10836;53.068;18.234;2023-04-23T01:03:50;100590.16;;;3.85;100.00
21357;BME280;10836;53.068;18.234;2023-04-23T01:06:19;100588.00;;;3.76;100.00
21357;BME280;10836;53.068;18.234;2023-04-23T01:08:46;100585.19;;;3.71;100.00
21357;BME280;10836;53.068;18.234;2023-04-23T01:11:13;100582.81;;;3.62;100.00
21357;BME280;10836;53.068;18.234;2023-04-23T01:13:42;100579.59;;;3.42;100.00
21357;BME280;10836;53.068;18.234;2023-04-23T01:16:09;100567.19;;;3.23;100.00
21357;BME280;10836;53.068;18.234;2023-04-23T01:18:37;100571.94;;;3.39;100.00
21357;BME280;10836;53.068;18.234;2023-04-23T01:21:08;100573.38;;;3.42;100.00
21357;BME280;10836;53.068;18.234;2023-04-23T01:23:37;100571.97;;;3.51;100.00
21357;BME280;10836;53.068;18.234;2023-04-23T01:26:04;100572.47;;;3.59;100.00
21357;BME280;10836;53.068;18.234;2023-04-23T01:28:32;100573.25;;;3.48;100.00
21357;BME280;10836;53.068;18.234;2023-04-23T01:30:59;100575.00;;;3.43;100.00
21357;BME280;10836;53.068;18.234;2023-04-23T01:33:28;100561.88;;;3.46;100.00
21357;BME280;10836;53.068;18.234;2023-04-23T01:35:56;100569.84;;;3.41;100.00
21357;BME280;10836;53.068;18.234;2023-04-23T01:38:24;100565.50;;;3.40;100.00
21357;BME280;10836;53.068;18.234;2023-04-23T01:40:52;100569.94;;;3.34;100.00
21357;BME280;10836;53.068;18.234;2023-04-23T01:43:21;100563.47;;;3.36;100.00
21357;BME280;10836;53.068;18.234;2023-04-23T01:45:48;100564.41;;;3.29;100.00
21357;BME280;10836;53.068;18.234;2023-04-23T01:48:16;100565.16;;;3.18;100.00
21357;BME280;10836;53.068;18.234;2023-04-23T01:50:43;100558.56;;;3.14;100.00
21357;BME280;10836;53.068;18.234;2023-04-23T01:53:10;100570.16;;;3.03;100.00
21357;BME280;10836;53.068;18.234;2023-04-23T01:55:37;100563.84;;;3.09;100.00
21357;BME280;10836;53.068;18.234;2023-04-23T01:58:05;100560.28;;;2.97;100.00
21357;BME280;10836;53.068;18.234;2023-04-23T02:00:32;100556.06;;;3.01;100.00
21357;BME280;10836;53.068;18.234;2023-04-23T02:02:59;100561.00;;;3.04;100.00
21357;BME280;10836;53.068;18.234;2023-04-23T02:05:27;100560.59;;;2.89;100.00
21357;BME280;10836;53.068;18.234;2023-04-23T02:07:55;100553.84;;;2.80;100.00
21357;BME280;10836;53.068;18.234;2023-04-23T02:10:22;100550.84;;;2.88;100.00
21357;BME280;10836;53.068;18.234;2023-04-23T02:12:49;100550.25;;;2.86;100.00
21357;BME280;10836;53.068;18.234;2023-04-23T02:15:16;100553.22;;;2.96;100.00
21357;BME280;10836;53.068;18.234;2023-04-23T02:17:43;100544.09;;;2.97;100.00
21357;BME280;10836;53.068;18.234;2023-04-23T02:20:10;100547.09;;;2.89;100.00
21357;BME280;10836;53.068;18.234;2023-04-23T02:22:39;100540.97;;;2.82;100.00
21357;BME280;10836;53.068;18.234;2023-04-23T02:25:07;100538.56;;;2.74;100.00
21357;BME280;10836;53.068;18.234;2023-04-23T02:27:34;100539.16;;;2.76;100.00
21357;BME280;10836;53.068;18.234;2023-04-23T02:30:02;100540.59;;;2.78;100.00
21357;BME280;10836;53.068;18.234;2023-04-23T02:32:29;100537.66;;;2.80;100.00
21357;BME280;10836;53.068;18.234;2023-04-23T02:34:56;100533.91;;;2.81;100.00
21357;BME280;10836;53.068;18.234;2023-04-23T02:37:25;100533.63;;;2.71;100.00
21357;BME280;10836;53.068;18.234;2023-04-23T02:39:52;100530.63;;;2.79;100.00
21357;BME280;10836;53.068;18.234;2023-04-23T02:42:19;100532.28;;;2.80;100.00
21357;BME280;10836;53.068;18.234;2023-04-23T02:44:46;100527.63;;;2.87;100.00
21357;BME280;10836;53.068;18.234;2023-04-23T02:47:13;100534.75;;;2.81;100.00
21357;BME280;10836;53.068;18.234;2023-04-23T02:49:40;100532.66;;;2.83;100.00
21357;BME280;10836;53.068;18.234;2023-04-23T02:52:07;100534.81;;;2.75;100.00
21357;BME280;10836;53.068;18.234;2023-04-23T02:54:34;100532.44;;;2.66;100.00
21357;BME280;10836;53.068;18.234;2023-04-23T02:57:04;100530.50;;;2.55;100.00
21357;BME280;10836;53.068;18.234;2023-04-23T02:59:32;100528.31;;;2.64;100.00
21357;BME280;10836;53.068;18.234;2023-04-23T03:01:59;100527.03;;;2.66;100.00
21357;BME280;10836;53.068;18.234;2023-04-23T03:04:26;100532.16;;;2.56;100.00
21357;BME280;10836;53.068;18.234;2023-04-23T03:06:53;100527.28;;;2.47;100.00
21357;BME280;10836;53.068;18.234;2023-04-23T03:09:20;100524.88;;;2.39;100.00
21357;BME280;10836;53.068;18.234;2023-04-23T03:11:47;100524.13;;;2.31;100.00
21357;BME280;10836;53.068;18.234;2023-04-23T03:14:14;100521.81;;;2.35;100.00
21357;BME280;10836;53.068;18.234;2023-04-23T03:16:41;100527.66;;;2.50;100.00
21357;BME280;10836;53.068;18.234;2023-04-23T03:19:08;100535.28;;;2.35;100.00
21357;BME280;10836;53.068;18.234;2023-04-23T03:21:35;100526.53;;;2.40;100.00
21357;BME280;10836;53.068;18.234;2023-04-23T03:24:02;100519.34;;;2.52;100.00
21357;BME280;10836;53.068;18.234;2023-04-23T03:26:29;100516.88;;;2.32;100.00
21357;BME280;10836;53.068;18.234;2023-04-23T03:28:56;100513.28;;;2.38;100.00
21357;BME280;10836;53.068;18.234;2023-04-23T03:31:23;100510.88;;;2.30;100.00
21357;BME280;10836;53.068;18.234;2023-04-23T03:33:51;100509.38;;;2.34;100.00
21357;BME280;10836;53.068;18.234;2023-04-23T03:36:25;100510.50;;;2.26;100.00
21357;BME280;10836;53.068;18.234;2023-04-23T03:38:52;100509.22;;;2.29;100.00
21357;BME280;10836;53.068;18.234;2023-04-23T03:41:19;100507.44;;;2.41;100.00
21357;BME280;10836;53.068;18.234;2023-04-23T03:43:48;100512.38;;;2.44;100.00
21357;BME280;10836;53.068;18.234;2023-04-23T03:46:19;100514.78;;;2.52;100.00
21357;BME280;10836;53.068;18.234;2023-04-23T03:48:46;100506.09;;;2.50;100.00
21357;BME280;10836;53.068;18.234;2023-04-23T03:51:21;100506.84;;;2.57;100.00
21357;BME280;10836;53.068;18.234;2023-04-23T03:53:49;100504.75;;;2.59;100.00
21357;BME280;10836;53.068;18.234;2023-04-23T03:56:52;100510.84;;;2.66;100.00
21357;BME280;10836;53.068;18.234;2023-04-23T03:59:25;100506.94;;;2.81;100.00
21357;BME280;10836;53.068;18.234;2023-04-23T04:01:55;100513.38;;;2.98;100.00
21357;BME280;10836;53.068;18.234;2023-04-23T04:04:24;100510.41;;;3.29;100.00
21357;BME280;10836;53.068;18.234;2023-04-23T04:06:53;100510.00;;;3.56;100.00
21357;BME280;10836;53.068;18.234;2023-04-23T04:09:26;100507.00;;;3.87;100.00
21357;BME280;10836;53.068;18.234;2023-04-23T04:11:53;100508.41;;;3.78;100.00
21357;BME280;10836;53.068;18.234;2023-04-23T04:14:21;100506.03;;;4.05;100.00
21357;BME280;10836;53.068;18.234;2023-04-23T04:16:48;100506.16;;;3.98;100.00
21357;BME280;10836;53.068;18.234;2023-04-23T04:19:15;100506.16;;;4.10;100.00
21357;BME280;10836;53.068;18.234;2023-04-23T04:21:42;100501.81;;;4.21;100.00
21357;BME280;10836;53.068;18.234;2023-04-23T04:24:09;100501.53;;;4.46;100.00
21357;BME280;10836;53.068;18.234;2023-04-23T04:26:37;100510.34;;;4.93;100.00
21357;BME280;10836;53.068;18.234;2023-04-23T04:29:04;100505.47;;;5.23;100.00
21357;BME280;10836;53.068;18.234;2023-04-23T04:31:31;100507.69;;;6.05;100.00
21357;BME280;10836;53.068;18.234;2023-04-23T04:33:58;100509.78;;;6.80;100.00
21357;BME280;10836;53.068;18.234;2023-04-23T04:36:25;100507.06;;;7.61;100.00
21357;BME280;10836;53.068;18.234;2023-04-23T04:38:53;100505.75;;;8.00;100.00
21357;BME280;10836;53.068;18.234;2023-04-23T04:41:21;100498.81;;;8.25;98.42
21357;BME280;10836;53.068;18.234;2023-04-23T04:43:51;100507.94;;;8.04;97.61
21357;BME280;10836;53.068;18.234;2023-04-23T04:46:18;100504.53;;;7.86;99.21
21357;BME280;10836;53.068;18.234;2023-04-23T04:48:47;100510.91;;;7.65;99.97
21357;BME280;10836;53.068;18.234;2023-04-23T04:51:14;100516.94;;;7.13;100.00
21357;BME280;10836;53.068;18.234;2023-04-23T04:53:41;100501.41;;;7.36;100.00
21357;BME280;10836;53.068;18.234;2023-04-23T04:56:09;100496.97;;;7.24;100.00
21357;BME280;10836;53.068;18.234;2023-04-23T04:58:35;100496.84;;;7.14;100.00
21357;BME280;10836;53.068;18.234;2023-04-23T05:01:03;100493.31;;;7.14;100.00
21357;BME280;10836;53.068;18.234;2023-04-23T05:03:31;100490.34;;;7.15;100.00
21357;BME280;10836;53.068;18.234;2023-04-23T05:05:58;100490.75;;;7.02;100.00
21357;BME280;10836;53.068;18.234;2023-04-23T05:08:25;100489.66;;;7.03;100.00
21357;BME280;10836;53.068;18.234;2023-04-23T05:10:52;100485.72;;;7.16;100.00
21357;BME280;10836;53.068;18.234;2023-04-23T05:13:20;100490.44;;;7.25;100.00
21357;BME280;10836;53.068;18.234;2023-04-23T05:15:47;100485.63;;;7.32;100.00
21357;BME280;10836;53.068;18.234;2023-04-23T05:18:14;100494.94;;;7.42;100.00
21357;BME280;10836;53.068;18.234;2023-04-23T05:20:41;100488.63;;;7.63;100.00
21357;BME280;10836;53.068;18.234;2023-04-23T05:23:08;100488.03;;;8.35;100.00
21357;BME280;10836;53.068;18.234;2023-04-23T05:25:35;100486.47;;;9.62;100.00
21357;BME280;10836;53.068;18.234;2023-04-23T05:28:02;100489.44;;;10.01;97.04
21357;BME280;10836;53.068;18.234;2023-04-23T05:30:30;100486.09;;;10.40;93.55
21357;BME280;10836;53.068;18.234;2023-04-23T05:32:56;100491.91;;;10.93;93.15
21357;BME280;10836;53.068;18.234;2023-04-23T05:35:24;100494.31;;;11.49;89.65
21357;BME280;10836;53.068;18.234;2023-04-23T05:37:50;100486.94;;;11.83;85.28
21357;BME280;10836;53.068;18.234;2023-04-23T05:40:17;100483.81;;;12.24;83.03
21357;BME280;10836;53.068;18.234;2023-04-23T05:42:44;100486.66;;;11.46;84.59
21357;BME280;10836;53.068;18.234;2023-04-23T05:45:11;100495.88;;;11.60;87.25
21357;BME280;10836;53.068;18.234;2023-04-23T05:47:38;100487.75;;;11.50;85.19
21357;BME280;10836;53.068;18.234;2023-04-23T05:50:06;100486.38;;;11.86;83.42
21357;BME280;10836;53.068;18.234;2023-04-23T05:52:33;100488.41;;;12.28;80.25
21357;BME280;10836;53.068;18.234;2023-04-23T05:55:03;100486.22;;;12.54;79.86
21357;BME280;10836;53.068;18.234;2023-04-23T05:57:30;100492.41;;;12.41;77.96
21357;BME280;10836;53.068;18.234;2023-04-23T05:59:57;100490.66;;;12.50;79.59
21357;BME280;10836;53.068;18.234;2023-04-23T06:02:23;100473.50;;;12.63;75.45
21357;BME280;10836;53.068;18.234;2023-04-23T06:04:51;100485.78;;;12.90;76.58
21357;BME280;10836;53.068;18.234;2023-04-23T06:07:18;100491.38;;;13.22;74.59
21357;BME280;10836;53.068;18.234;2023-04-23T06:09:46;100476.41;;;13.34;73.31
21357;BME280;10836;53.068;18.234;2023-04-23T06:12:12;100485.31;;;13.25;73.33
21357;BME280;10836;53.068;18.234;2023-04-23T06:14:39;100478.38;;;13.09;72.34
21357;BME280;10836;53.068;18.234;2023-04-23T06:17:07;100479.94;;;13.15;73.97
21357;BME280;10836;53.068;18.234;2023-04-23T06:19:34;100467.94;;;13.11;72.89
21357;BME280;10836;53.068;18.234;2023-04-23T06:22:01;100472.38;;;13.45;73.64
21357;BME280;10836;53.068;18.234;2023-04-23T06:24:28;100470.44;;;13.96;70.31
21357;BME280;10836;53.068;18.234;2023-04-23T06:26:55;100467.75;;;14.24;68.96
21357;BME280;10836;53.068;18.234;2023-04-23T06:29:24;100475.91;;;14.56;70.04
21357;BME280;10836;53.068;18.234;2023-04-23T06:32:01;100466.47;;;15.12;65.24
21357;BME280;10836;53.068;18.234;2023-04-23T06:34:28;100471.09;;;15.84;58.58
21357;BME280;10836;53.068;18.234;2023-04-23T06:36:55;100469.09;;;16.69;54.23
21357;BME280;10836;53.068;18.234;2023-04-23T06:39:22;100472.25;;;17.10;52.69
21357;BME280;10836;53.068;18.234;2023-04-23T06:41:49;100470.78;;;17.90;50.37
21357;BME280;10836;53.068;18.234;2023-04-23T06:44:34;100469.44;;;18.14;49.44
21357;BME280;10836;53.068;18.234;2023-04-23T06:47:02;100461.34;;;18.09;47.82
21357;BME280;10836;53.068;18.234;2023-04-23T06:49:29;100468.41;;;18.27;48.12
21357;BME280;10836;53.068;18.234;2023-04-23T06:51:56;100459.63;;;18.25;48.39
21357;BME280;10836;53.068;18.234;2023-04-23T06:54:24;100465.41;;;18.03;47.15
21357;BME280;10836;53.068;18.234;2023-04-23T06:56:51;100460.97;;;18.19;47.21
21357;BME280;10836;53.068;18.234;2023-04-23T06:59:18;100466.03;;;19.35;44.80
21357;BME280;10836;53.068;18.234;2023-04-23T07:01:48;100468.16;;;19.91;44.73
21357;BME280;10836;53.068;18.234;2023-04-23T07:04:15;100464.47;;;19.04;43.71
21357;BME280;10836;53.068;18.234;2023-04-23T07:06:42;100458.41;;;19.52;44.06
21357;BME280;10836;53.068;18.234;2023-04-23T07:09:09;100453.00;;;19.14;43.55
21357;BME280;10836;53.068;18.234;2023-04-23T07:11:36;100455.72;;;18.73;44.73
21357;BME280;10836;53.068;18.234;2023-04-23T07:14:03;100456.31;;;19.28;44.36
21357;BME280;10836;53.068;18.234;2023-04-23T07:16:30;100446.97;;;19.54;42.66
21357;BME280;10836;53.068;18.234;2023-04-23T07:19:00;100457.56;;;19.73;42.87
21357;BME280;10836;53.068;18.234;2023-04-23T07:21:28;100449.06;;;19.15;45.74
21357;BME280;10836;53.068;18.234;2023-04-23T07:23:56;100449.22;;;20.06;43.70
21357;BME280;10836;53.068;18.234;2023-04-23T07:26:23;100434.53;;;20.63;41.27
21357;BME280;10836;53.068;18.234;2023-04-23T07:28:51;100447.88;;;20.36;39.77
21357;BME280;10836;53.068;18.234;2023-04-23T07:31:18;100443.94;;;20.13;40.41
21357;BME280;10836;53.068;18.234;2023-04-23T07:33:46;100433.78;;;20.17;41.02
21357;BME280;10836;53.068;18.234;2023-04-23T07:36:13;100435.97;;;19.66;41.70
21357;BME280;10836;53.068;18.234;2023-04-23T07:38:41;100441.84;;;20.10;42.38
21357;BME280;10836;53.068;18.234;2023-04-23T07:41:08;100425.81;;;21.41;38.71
21357;BME280;10836;53.068;18.234;2023-04-23T07:43:35;100428.69;;;21.04;38.37
21357;BME280;10836;53.068;18.234;2023-04-23T07:46:02;100421.56;;;20.54;39.87
21357;BME280;10836;53.068;18.234;2023-04-23T07:48:29;100421.28;;;20.96;39.79
21357;BME280;10836;53.068;18.234;2023-04-23T07:50:56;100429.13;;;21.06;38.50
21357;BME280;10836;53.068;18.234;2023-04-23T07:53:23;100424.34;;;20.42;40.16
21357;BME280;10836;53.068;18.234;2023-04-23T07:55:50;100412.00;;;21.16;39.05
21357;BME280;10836;53.068;18.234;2023-04-23T07:58:18;100414.44;;;21.74;38.31
21357;BME280;10836;53.068;18.234;2023-04-23T08:00:44;100423.56;;;21.74;37.62
21357;BME280;10836;53.068;18.234;2023-04-23T08:03:12;100409.47;;;22.11;36.96
21357;BME280;10836;53.068;18.234;2023-04-23T08:05:39;100409.16;;;21.41;39.18
21357;BME280;10836;53.068;18.234;2023-04-23T08:08:07;100415.22;;;22.49;37.20
21357;BME280;10836;53.068;18.234;2023-04-23T08:10:34;100413.03;;;22.90;36.37
21357;BME280;10836;53.068;18.234;2023-04-23T08:13:01;100422.28;;;23.13;36.69
21357;BME280;10836;53.068;18.234;2023-04-23T08:15:28;100407.16;;;21.01;37.96
21357;BME280;10836;53.068;18.234;2023-04-23T08:17:55;100398.03;;;21.84;38.85
21357;BME280;10836;53.068;18.234;2023-04-23T08:20:22;100411.78;;;23.45;35.52
21357;BME280;10836;53.068;18.234;2023-04-23T08:22:50;100404.69;;;23.67;33.81
21357;BME280;10836;53.068;18.234;2023-04-23T08:25:19;100395.59;;;23.12;33.52
21357;BME280;10836;53.068;18.234;2023-04-23T08:27:46;100404.81;;;22.46;35.65
21357;BME280;10836;53.068;18.234;2023-04-23T08:30:13;100392.56;;;22.67;34.74
21357;BME280;10836;53.068;18.234;2023-04-23T08:32:40;100397.66;;;23.73;34.01
21357;BME280;10836;53.068;18.234;2023-04-23T08:35:08;100396.16;;;23.02;34.37
21357;BME280;10836;53.068;18.234;2023-04-23T08:37:35;100381.50;;;23.05;34.17
21357;BME280;10836;53.068;18.234;2023-04-23T08:40:02;100384.59;;;23.77;32.12
21357;BME280;10836;53.068;18.234;2023-04-23T08:42:56;100390.38;;;22.76;34.60
21357;BME280;10836;53.068;18.234;2023-04-23T08:45:23;100383.25;;;23.52;34.67
21357;BME280;10836;53.068;18.234;2023-04-23T08:47:56;100382.91;;;23.96;33.00
21357;BME280;10836;53.068;18.234;2023-04-23T08:50:27;100380.22;;;23.57;32.35
21357;BME280;10836;53.068;18.234;2023-04-23T08:52:56;100387.06;;;24.28;34.66
21357;BME280;10836;53.068;18.234;2023-04-23T08:55:24;100379.97;;;23.88;33.34
21357;BME280;10836;53.068;18.234;2023-04-23T08:57:51;100367.13;;;23.42;33.14
21357;BME280;10836;53.068;18.234;2023-04-23T09:00:19;100369.66;;;24.61;33.02
21357;BME280;10836;53.068;18.234;2023-04-23T09:02:49;100368.25;;;23.57;32.19
21357;BME280;10836;53.068;18.234;2023-04-23T09:05:16;100362.28;;;23.77;33.30
21357;BME280;10836;53.068;18.234;2023-04-23T09:07:44;100386.50;;;23.54;32.47
21357;BME280;10836;53.068;18.234;2023-04-23T09:10:12;100366.00;;;23.23;31.78
21357;BME280;10836;53.068;18.234;2023-04-23T09:12:44;100357.38;;;23.94;30.75
21357;BME280;10836;53.068;18.234;2023-04-23T09:15:11;100358.63;;;23.73;32.24
21357;BME280;10836;53.068;18.234;2023-04-23T09:17:43;100360.13;;;24.39;30.53
21357;BME280;10836;53.068;18.234;2023-04-23T09:20:12;100361.09;;;24.77;29.95
21357;BME280;10836;53.068;18.234;2023-04-23T09:22:50;100344.59;;;22.89;30.49
21357;BME280;10836;53.068;18.234;2023-04-23T09:25:21;100335.00;;;23.67;31.23
21357;BME280;10836;53.068;18.234;2023-04-23T09:27:50;100357.78;;;22.41;31.98
21357;BME280;10836;53.068;18.234;2023-04-23T09:30:18;100352.59;;;22.75;34.60
21357;BME280;10836;53.068;18.234;2023-04-23T09:32:45;100346.72;;;23.15;32.79
21357;BME280;10836;53.068;18.234;2023-04-23T09:35:15;100345.16;;;24.02;29.64
21357;BME280;10836;53.068;18.234;2023-04-23T09:37:43;100334.41;;;23.77;30.47
21357;BME280;10836;53.068;18.234;2023-04-23T09:40:19;100329.47;;;23.29;30.58
21357;BME280;10836;53.068;18.234;2023-04-23T09:42:51;100338.41;;;23.38;29.88
21357;BME280;10836;53.068;18.234;2023-04-23T09:45:20;100332.13;;;24.32;30.89
21357;BME280;10836;53.068;18.234;2023-04-23T09:50:14;100328.59;;;22.86;30.28
21357;BME280;10836;53.068;18.234;2023-04-23T09:52:41;100319.16;;;22.55;29.42
21357;BME280;10836;53.068;18.234;2023-04-23T09:55:08;100325.69;;;21.97;31.03
21357;BME280;10836;53.068;18.234;2023-04-23T09:57:36;100316.88;;;22.61;31.88
21357;BME280;10836;53.068;18.234;2023-04-23T10:00:15;100310.28;;;23.23;32.05
21357;BME280;10836;53.068;18.234;2023-04-23T10:02:49;100311.31;;;23.15;29.73
21357;BME280;10836;53.068;18.234;2023-04-23T10:05:18;100323.16;;;23.32;29.26
21357;BME280;10836;53.068;18.234;2023-04-23T10:07:49;100291.97;;;22.84;28.62
21357;BME280;10836;53.068;18.234;2023-04-23T10:10:19;100310.53;;;22.61;30.65
21357;BME280;10836;53.068;18.234;2023-04-23T10:12:46;100293.53;;;22.46;28.44
21357;BME280;10836;53.068;18.234;2023-04-23T10:15:22;100288.97;;;22.57;28.72
21357;BME280;10836;53.068;18.234;2023-04-23T10:17:49;100302.06;;;23.11;28.71
21357;BME280;10836;53.068;18.234;2023-04-23T10:20:19;100291.00;;;24.03;28.73
21357;BME280;10836;53.068;18.234;2023-04-23T10:22:48;100302.34;;;23.26;29.06
21357;BME280;10836;53.068;18.234;2023-04-23T10:25:15;100282.34;;;23.62;28.85
21357;BME280;10836;53.068;18.234;2023-04-23T10:27:48;100288.16;;;23.53;28.83
21357;BME280;10836;53.068;18.234;2023-04-23T10:30:20;100288.56;;;22.75;28.46
21357;BME280;10836;53.068;18.234;2023-04-23T10:32:49;100278.03;;;23.03;28.58
21357;BME280;10836;53.068;18.234;2023-04-23T10:35:16;100288.88;;;23.28;28.38
21357;BME280;10836;53.068;18.234;2023-04-23T10:37:44;100283.53;;;23.42;28.23
21357;BME280;10836;53.068;18.234;2023-04-23T10:40:13;100271.84;;;23.33;26.93
21357;BME280;10836;53.068;18.234;2023-04-23T10:42:43;100264.69;;;23.77;27.61
21357;BME280;10836;53.068;18.234;2023-04-23T10:45:14;100280.56;;;23.31;28.21
21357;BME280;10836;53.068;18.234;2023-04-23T10:47:54;100262.34;;;23.79;27.69
21357;BME280;10836;53.068;18.234;2023-04-23T10:50:28;100256.03;;;23.60;28.51
21357;BME280;10836;53.068;18.234;2023-04-23T10:52:56;100261.69;;;23.21;28.63
21357;BME280;10836;53.068;18.234;2023-04-23T10:55:30;100264.69;;;23.12;29.76
21357;BME280;10836;53.068;18.234;2023-04-23T10:58:06;100248.63;;;23.48;28.08
21357;BME280;10836;53.068;18.234;2023-04-23T11:06:03;100231.25;;;23.77;27.82
21357;BME280;10836;53.068;18.234;2023-04-23T11:08:31;100250.56;;;23.67;28.14
21357;BME280;10836;53.068;18.234;2023-04-23T11:11:05;100244.22;;;24.19;27.29
21357;BME280;10836;53.068;18.234;2023-04-23T11:13:32;100243.03;;;24.46;26.56
21357;BME280;10836;53.068;18.234;2023-04-23T11:16:16;100232.09;;;23.81;25.96
21357;BME280;10836;53.068;18.234;2023-04-23T11:19:14;100225.22;;;24.28;27.23
21357;BME280;10836;53.068;18.234;2023-04-23T11:24:39;100226.31;;;23.94;27.56
21357;BME280;10836;53.068;18.234;2023-04-23T11:27:10;100250.66;;;23.28;26.95
21357;BME280;10836;53.068;18.234;2023-04-23T11:29:39;100217.84;;;23.41;26.56
21357;BME280;10836;53.068;18.234;2023-04-23T11:32:08;100227.38;;;23.85;27.70
21357;BME280;10836;53.068;18.234;2023-04-23T11:34:40;100213.06;;;24.13;26.93
21357;BME280;10836;53.068;18.234;2023-04-23T11:37:10;100213.13;;;24.47;26.71
21357;BME280;10836;53.068;18.234;2023-04-23T11:39:39;100223.41;;;24.13;24.34
21357;BME280;10836;53.068;18.234;2023-04-23T11:42:11;100218.78;;;24.24;24.09
21357;BME280;10836;53.068;18.234;2023-04-23T11:44:40;100209.13;;;23.65;25.02
21357;BME280;10836;53.068;18.234;2023-04-23T11:47:12;100206.13;;;24.04;25.38
21357;BME280;10836;53.068;18.234;2023-04-23T11:49:40;100202.25;;;24.38;26.56
21357;BME280;10836;53.068;18.234;2023-04-23T11:52:11;100187.28;;;23.67;27.11
21357;BME280;10836;53.068;18.234;2023-04-23T11:54:40;100210.69;;;23.63;28.96
21357;BME280;10836;53.068;18.234;2023-04-23T11:57:07;100204.63;;;23.34;28.03
21357;BME280;10836;53.068;18.234;2023-04-23T11:59:35;100199.78;;;23.77;27.84
21357;BME280;10836;53.068;18.234;2023-04-23T12:02:02;100197.13;;;23.61;27.44
21357;BME280;10836;53.068;18.234;2023-04-23T12:04:32;100195.16;;;23.62;27.87
21357;BME280;10836;53.068;18.234;2023-04-23T12:06:59;100192.84;;;23.67;27.31
21357;BME280;10836;53.068;18.234;2023-04-23T12:09:29;100194.97;;;24.30;26.65
21357;BME280;10836;53.068;18.234;2023-04-23T12:11:56;100177.22;;;24.15;26.58
21357;BME280;10836;53.068;18.234;2023-04-23T12:14:28;100193.91;;;24.12;27.11
21357;BME280;10836;53.068;18.234;2023-04-23T12:16:57;100185.81;;;24.03;26.56
21357;BME280;10836;53.068;18.234;2023-04-23T12:19:29;100180.16;;;24.26;27.41
21357;BME280;10836;53.068;18.234;2023-04-23T12:21:58;100193.16;;;24.15;26.52
21357;BME280;10836;53.068;18.234;2023-04-23T12:24:48;100176.97;;;23.48;27.30
21357;BME280;10836;53.068;18.234;2023-04-23T12:27:18;100178.91;;;23.67;28.93
21357;BME280;10836;53.068;18.234;2023-04-23T12:29:46;100182.13;;;23.69;27.92
21357;BME280;10836;53.068;18.234;2023-04-23T12:32:14;100179.16;;;23.36;28.61
21357;BME280;10836;53.068;18.234;2023-04-23T12:34:51;100181.22;;;23.62;28.18
21357;BME280;10836;53.068;18.234;2023-04-23T12:37:25;100172.41;;;24.12;27.69
21357;BME280;10836;53.068;18.234;2023-04-23T12:39:53;100196.69;;;23.85;27.18
21357;BME280;10836;53.068;18.234;2023-04-23T12:42:22;100162.28;;;23.74;27.56
21357;BME280;10836;53.068;18.234;2023-04-23T12:44:49;100172.63;;;23.74;27.54
21357;BME280;10836;53.068;18.234;2023-04-23T12:47:17;100171.16;;;23.83;27.79
21357;BME280;10836;53.068;18.234;2023-04-23T12:49:47;100157.91;;;23.73;27.74
21357;BME280;10836;53.068;18.234;2023-04-23T12:52:15;100163.19;;;24.38;27.27
21357;BME280;10836;53.068;18.234;2023-04-23T12:54:42;100165.16;;;24.08;27.45
21357;BME280;10836;53.068;18.234;2023-04-23T12:57:11;100177.53;;;23.80;28.18
21357;BME280;10836;53.068;18.234;2023-04-23T12:59:40;100167.91;;;23.29;27.64